• Join FlightAware (Why Join?)
  • Login
  • US Flag 
11:59AM EST


 

Airport Tracker/Info


-or-


 

Live Flight TrackerFlight Track Log ✈ UAL1116 ✈ 31-Dec-2013 ✈ KSFO - KLAS

Flight Track Log - Related Links

Times and Time Zones

All times are in EST time to prevent confusion due to time zone crossing. See the UAL1116 flight status page for this flight to view local times or setup timezone preferences in your user account.

Time Position Orientation Groundspeed Altitude Reporting Facility
EST Latitude Longitude Course Direction KTS MPH feet Rate Location/Type
11:43PM 37.6333 -122.3667 133° Southeast 171 197 800  Level Northern Cal TRACON
11:44PM 37.6833 -122.3667 360° North 223 257 2,900 2,460 Climbing Northern Cal TRACON
11:45PM 37.7333 -122.4000 332° Northwest 273 314 5,500 2,880 Climbing Northern Cal TRACON
11:46PM 37.3433 -122.2186 136° Southeast  Level FlightAware Approximate
11:46PM 37.6833 -122.4667 227° Southwest 295 339 8,700  Level Northern Cal TRACON
11:47PM 37.2623 -122.1123 141° Southeast  Level FlightAware Approximate
11:48PM 37.1903 -121.9963 132° Southeast  Level FlightAware Approximate
11:49PM 37.1154 -121.8983 133° Southeast  Level FlightAware Approximate
11:49PM 37.6231 -122.2294 108° East 351 404 11,600  Level Oakland Center
11:50PM 37.5886 -122.1100 110° East 362 417 14,200 2,760 Climbing Oakland Center
11:50PM 37.5667 -122.0333 110° East 380 437 16,200 2,460 Climbing Northern Cal TRACON
11:53PM 37.4747 -121.7278 111° Southeast 393 452 21,800 2,160 Climbing Oakland Center
11:54PM 37.4356 -121.5947 110° East 403 464 23,700 1,740 Climbing Oakland Center
11:55PM 37.3939 -121.4569 111° Southeast 418 481 25,400 1,560 Climbing Oakland Center
11:56PM 37.3525 -121.3225 111° Southeast 430 495 26,900 1,320 Climbing Oakland Center
11:57PM 37.3078 -121.1767 111° Southeast 444 511 28,100 1,140 Climbing Oakland Center
11:58PM 37.2522 -120.9925 111° Southeast 466 536 29,300 1,200 Climbing Oakland Center
11:59PM 37.2036 -120.8339 111° Southeast 484 557 30,600 840 Climbing Oakland Center
12:00AM 37.1553 -120.6764 111° Southeast 485 558 31,000 180 Climbing Oakland Center
12:01AM 37.1072 -120.5206 111° Southeast 481 554 31,000  Level Oakland Center
12:02AM 37.0583 -120.3667 112° Southeast 479 551 31,000  Level Oakland Center
12:03AM 37.0092 -120.2117 112° Southeast 479 551 31,000  Level Oakland Center
12:04AM 36.9633 -120.0611 111° Southeast 481 554 31,000  Level Oakland Center
12:05AM 36.9133 -119.9061 112° Southeast 481 554 31,000 -60 Level Oakland Center
12:06AM 36.8742 -119.7478 107° East 477 549 30,900  Descending Oakland Center
12:07AM 36.8483 -119.5842 101° East 479 551 31,000  Climbing Oakland Center
12:08AM 36.8217 -119.4208 101° East 479 551 31,000  Level Oakland Center
12:09AM 36.7953 -119.2583 101° East 478 550 31,000  Level Oakland Center
12:10AM 36.7694 -119.0964 101° East 478 550 31,000 -60 Level Oakland Center
12:11AM 36.7428 -118.9328 101° East 480 552 30,900 -60 Descending Oakland Center
12:12AM 36.7156 -118.7711 102° East 478 550 30,900  Level Oakland Center
12:13AM 36.6917 -118.6111 101° East 473 544 31,000  Climbing Oakland Center
12:14AM 36.6631 -118.4458 102° East 476 548 31,000  Level Oakland Center
12:14AM 36.6450 -118.3419 102° East 482 555 31,000  Level Los Angeles Center
12:15AM 36.6181 -118.1811 102° East 480 552 31,000  Level Los Angeles Center
12:16AM 36.5900 -118.0228 102° East 476 548 31,000  Level Los Angeles Center
12:17AM 36.5631 -117.8628 102° East 474 545 31,000  Level Los Angeles Center
12:18AM 36.5353 -117.7061 102° East 471 542 31,000 -480 Level Los Angeles Center
12:19AM 36.5075 -117.5483 102° East 469 540 30,100 -960 Descending Los Angeles Center
12:20AM 36.4794 -117.3947 103° East 465 535 29,100 -600 Descending Los Angeles Center
12:21AM 36.4519 -117.2411 103° East 461 531 28,900 -600 Descending Los Angeles Center
12:22AM 36.4244 -117.0908 103° East 456 525 28,000 -900 Descending Los Angeles Center
12:23AM 36.3961 -116.9367 103° East 454 522 27,100 -1,020 Descending Los Angeles Center
12:24AM 36.3681 -116.7792 102° East 461 531 26,000 -1,080 Descending Los Angeles Center
12:25AM 36.3400 -116.6283 103° East 456 525 25,000 -1,440 Descending Los Angeles Center
12:26AM 36.3072 -116.4514 103° East 444 511 23,100 -1,380 Descending Los Angeles Center
12:28AM 36.2803 -116.3078 103° East 433 498 22,200 -1,380 Descending Los Angeles Center
12:29AM 36.2525 -116.1672 104° East 428 493 20,300 -2,100 Descending Los Angeles Center
12:29AM 36.2386 -116.0944 103° East 431 496 19,100 -2,220 Descending Los Angeles Center
12:30AM 36.2269 -116.0292 102° East 414 476 18,100 -2,040 Descending Los Angeles Center
12:30AM 36.2189 -115.9889 104° East 417 480 17,500 -2,100 Descending Los Angeles Center
12:31AM 36.1978 -115.8819 104° East 412 474 16,000 -1,500 Descending Los Angeles Center
12:31AM 36.1825 -115.8464 118° Southeast 403 464 16,000 -840 Level Los Angeles Center
12:32AM 36.1544 -115.7558 111° Southeast 401 461 15,200 -1,200 Descending Los Angeles Center
12:32AM 36.1486 -115.7375 112° Southeast 395 455 14,900 -1,980 Descending Los Angeles Center
12:33AM 36.1153 -115.6353 112° Southeast 385 443 13,200 -2,220 Descending Los Angeles Center
12:33AM 36.0997 -115.5886 112° Southeast 387 445 12,300 -1,500 Descending Los Angeles Center
12:34AM 36.0758 -115.5128 111° Southeast 385 443 11,700 -900 Descending Los Angeles Center
12:34AM 36.0617 -115.4708 113° Southeast 354 407 11,400 -600 Descending Los Angeles Center
12:35AM 36.0411 -115.4044 111° Southeast 344 396 11,100 -480 Descending Los Angeles Center
12:35AM 36.0322 -115.3742 110° East 318 366 11,000 -1,200 Descending Los Angeles Center
12:36AM 36.0253 -115.2967 96° East 331 381 9,900 -1,140 Descending Los Angeles Center
12:36AM 36.0228 -115.2708 97° East 328 377 10,000 -1,500 Climbing Los Angeles Center
12:37AM 36.0183 -115.1853 94° East 308 354 8,400 -1,920 Descending Los Angeles Center
12:37AM 36.0164 -115.1719 100° East 299 344 8,100 -1,320 Descending Los Angeles Center
12:38AM 36.0114 -115.0900 94° East 287 330 7,100 -1,500 Descending Los Angeles Center
12:38AM 36.0094 -115.0600 95° East 280 322 6,500 -1,620 Descending Los Angeles Center
12:39AM 36.0053 -114.9967 95° East 277 319 5,500 -1,140 Descending Los Angeles Center
12:39AM 36.0061 -114.9758 87° East 262 302 5,500 -540 Level Los Angeles Center
12:40AM 36.0392 -114.9472 35° Northeast 218 251 5,000 -540 Descending Los Angeles Center
12:40AM 36.0508 -114.9531 338° Northwest 194 223 5,000 -720 Level Los Angeles Center
12:41AM 36.0744 -114.9931 306° West 183 211 4,300 -960 Descending Los Angeles Center
12:41AM 36.0739 -115.0092 268° West 177 204 4,000 -1,020 Descending Los Angeles Center
12:42AM 36.0736 -115.0506 270° West 168 193 3,300 -1,020 Descending Los Angeles Center
12:42AM 36.0736 -115.0678 270° West 161 185 3,000 -900 Descending Los Angeles Center
12:43AM 36.0733 -115.1056 269° West 162 186 2,400 -900 Descending Los Angeles Center
12:43AM 36.0731 -115.1239 269° West 162 186 2,100 -300 Descending Los Angeles Center
12:44AM 36.0731 -115.1419 270° West 144 166 2,100  Level Los Angeles Center